Afton, Texas
Current Conditions -  °F | °C
As of 7:53 AM on Tuesday 27 Jan 2015 (Local Time) from KCDS Reporting Station
Clear Clear  
Wind Chill: 38°   Ceiling: Unl
Heat Index: 42°   Visibility: 10mi
Dew Point: 34°   Wind: 7mph
Humidity: 73%   Direction: 300°WNW
Pressure: 30.19"   Gusts: NA
Location:  33.76°N, 100.82°W
Report Text: KCDS 271353Z AUTO 30006KT 10SM CLR 06/01 A3019 RMK AO2 SLP220 T00560011
Loading
Personal Weather Stations






























Interactive Weather Map New forecast layout! Learn more

10-Day Weather Forecast

Advertisements
Track Severe Weather on mobile